Portada
METAR-TAF:

METAR-TAF

Aeroports :

Izumo, Japó

latitud: 35-25N, longitud: 132-54E, altitud: 2 m

Observació

L'informe es va fer fa 56 minuts, a les 00:00 UTC
Vent 14 kt del Sud-Oest
Temperatura 30°C
Humitat 70%
Pressió 1008 hPa
Visibilitat: 7000 m
Escasses núvols a una alçada de 2500 ft
Núvols disperses a una alçada de 3000 ft
Cel ennuvolat a una alçada de 4000 ft

METAR: RJOC 070000Z 23014KT 7000 FEW025 SCT030 BKN040 30/24 Q1008

Hora: 09:56 (00:56 UTC)

Pronòstic

L'informe es va fer fa 1 hora i 50 minuts, a les 23:06 UTC
Pronòstic vàlid del 07 a les 00 UTC al 08 a les 06 UTC
Vent 13 kt del Oest/Sud-Oest
Visibilitat: 9000 m
Escasses núvols a una alçada de 2500 ft
Cel ennuvolat a una alçada de 4500 ft
Evolucionant progressivament
l' 07 a les 09 UTC al 07 a les 11 UTC
Vent 5 kt del Sud
Evolucionant progressivament
l' 08 a les 00 UTC al 08 a les 03 UTC
Vent 14 kt del Oest/Sud-Oest

TAF: RJOC 062306Z 0700/0806 25013KT 9000 FEW025 BKN045 BECMG 0709/0711 18005KT BECMG 0800/0803 25014KT

Observacions i pronòstics meteorològics de més de 4000 aeroports (METAR i TAF).

Les estacions disponibles són els punts grocs i vermells al mapa.

Posi el ratolí al punt desitjat per veure el nom de l'estació.

Feu clic per veure les observacions i els pronòstics meteorològics.

Per canviar el mapa: feu clic els botons verds amb una creu de color negre per apropar; al botó verd amb un guió per allunyar la imatge; o en les fletxes verdes per a mapes adjacents.


METAR-TAF: